Time;durP1;ratioP1;P1;durP2;ratioP2;P2;SDS_P1;SDS_P2;PMS_P1;PMS_P2;Temp;Humidity;BMP_temperature;BMP_pressure;BME280_temperature;BME280_humidity;BME280_pressure;Samples;Min_cycle;Max_cycle;Signal;HPM_P1;HPM_P2
2022/08/01 00:00:22;;;;;;;16.60;6.60;;;;;;;19.75;97.50;101181.78;5094033;28;20109;-58
2022/08/01 00:02:49;;;;;;;12.07;5.72;;;;;;;19.77;97.37;101184.28;5094114;28;20120;-58
2022/08/01 00:05:16;;;;;;;18.65;6.60;;;;;;;19.75;98.61;101187.16;5093618;28;20071;-58
2022/08/01 00:07:43;;;;;;;15.65;6.38;;;;;;;19.74;99.68;101182.84;5094276;28;20078;-58
2022/08/01 00:10:12;;;;;;;18.58;6.15;;;;;;;19.81;96.03;101178.28;5093814;28;20082;-58
2022/08/01 00:12:41;;;;;;;16.10;6.03;;;;;;;19.87;94.52;101188.22;5094247;28;20119;-58
2022/08/01 00:15:10;;;;;;;11.88;6.22;;;;;;;19.80;96.64;101189.25;5094045;28;20072;-58
2022/08/01 00:17:37;;;;;;;15.57;5.72;;;;;;;19.93;93.41;101189.28;5093976;28;20131;-58
2022/08/01 00:20:06;;;;;;;16.95;6.47;;;;;;;19.85;95.10;101184.91;5093906;28;20102;-58
2022/08/01 00:22:34;;;;;;;13.93;5.70;;;;;;;19.86;94.38;101189.25;5093716;28;20490;-58
2022/08/01 00:25:01;;;;;;;13.95;5.93;;;;;;;19.84;93.58;101185.13;5092630;28;20051;-58
2022/08/01 00:27:28;;;;;;;12.82;6.10;;;;;;;19.71;94.31;101184.03;5093914;28;20062;-58
2022/08/01 00:29:55;;;;;;;15.02;6.05;;;;;;;19.78;94.55;101186.78;5093619;28;20036;-58
2022/08/01 00:32:21;;;;;;;16.25;6.40;;;;;;;19.80;91.90;101186.56;5093749;28;20036;-58
2022/08/01 00:34:48;;;;;;;15.35;5.97;;;;;;;19.87;93.42;101185.53;5092698;28;20094;-58
2022/08/01 00:37:15;;;;;;;21.02;6.45;;;;;;;19.78;92.43;101181.38;5093579;28;20063;-58
2022/08/01 00:39:42;;;;;;;15.52;6.15;;;;;;;19.69;94.48;101185.28;5092246;28;20406;-59
2022/08/01 00:42:10;;;;;;;12.73;6.47;;;;;;;19.77;94.66;101186.97;5092895;28;20048;-58
2022/08/01 00:44:37;;;;;;;11.93;6.20;;;;;;;19.75;93.72;101181.78;5093483;28;20051;-58
2022/08/01 00:47:05;;;;;;;18.27;6.35;;;;;;;19.82;94.07;101187.19;5093486;28;20048;-59
2022/08/01 00:49:32;;;;;;;13.35;6.05;;;;;;;19.76;93.56;101186.16;5091455;28;20039;-58
2022/08/01 00:51:59;;;;;;;13.40;6.28;;;;;;;19.79;94.26;101180.34;5093275;28;20520;-58
2022/08/01 00:54:26;;;;;;;19.40;5.90;;;;;;;19.87;92.77;101182.84;5092472;28;20078;-58
2022/08/01 00:56:54;;;;;;;16.33;6.15;;;;;;;19.86;91.97;101180.34;5075413;28;20048;-58
2022/08/01 00:59:22;;;;;;;15.15;6.78;;;;;;;19.88;90.91;101181.81;5093189;28;20048;-58
2022/08/01 01:01:49;;;;;;;14.77;6.00;;;;;;;19.71;91.31;101177.81;5092608;28;20052;-58
2022/08/01 01:04:16;;;;;;;14.25;5.93;;;;;;;19.68;91.04;101180.91;5093022;28;20109;-58
2022/08/01 01:07:08;;;;;;;13.88;6.40;;;;;;;19.64;92.68;101175.09;5093315;28;20051;-58
2022/08/01 01:09:57;;;;;;;12.48;6.15;;;;;;;19.76;90.58;101170.00;5092997;28;20055;-58
2022/08/01 01:12:42;;;;;;;15.07;6.53;;;;;;;19.72;91.13;101180.31;5092970;28;20506;-58
2022/08/01 01:15:21;;;;;;;15.63;6.80;;;;;;;19.65;92.81;101175.94;5093141;28;20080;-58
2022/08/01 01:17:55;;;;;;;15.13;6.13;;;;;;;19.75;91.42;101179.94;5092843;28;20036;-58
2022/08/01 01:20:30;;;;;;;16.67;7.25;;;;;;;19.72;91.80;101174.94;5093229;28;20113;-58
2022/08/01 01:26:38;;;;;;;14.40;6.63;;;;;;;19.69;91.62;101174.50;5172995;27;20130;-57
2022/08/01 01:29:28;;;;;;;12.98;6.13;;;;;;;19.65;91.52;101175.94;5151887;27;20134;-58
2022/08/01 01:32:02;;;;;;;15.65;6.95;;;;;;;19.63;91.59;101184.22;5151838;27;20050;-57
2022/08/01 01:34:33;;;;;;;16.42;6.45;;;;;;;19.62;92.05;101185.25;5151625;27;20131;-57
2022/08/01 01:37:02;;;;;;;16.05;6.57;;;;;;;19.68;90.70;101186.28;5134008;27;20087;-57
2022/08/01 01:39:31;;;;;;;14.23;6.15;;;;;;;19.56;91.55;101186.06;5151685;27;20534;-58
2022/08/01 01:41:59;;;;;;;16.52;6.38;;;;;;;19.41;92.25;101183.53;5152019;27;20058;-58
2022/08/01 01:44:27;;;;;;;17.10;6.93;;;;;;;19.55;91.35;101184.41;5151842;27;20537;-58
2022/08/01 01:46:56;;;;;;;16.77;6.80;;;;;;;19.55;91.54;101184.41;5149800;27;20068;-58
2022/08/01 01:49:25;;;;;;;18.15;7.00;;;;;;;19.49;91.84;101190.59;5131288;28;20035;-58
2022/08/01 01:51:56;;;;;;;18.55;6.97;;;;;;;19.47;92.36;101190.78;5130730;27;20054;-57
2022/08/01 01:54:25;;;;;;;15.13;6.47;;;;;;;19.44;91.61;101191.19;5131144;28;20434;-58
2022/08/01 01:56:54;;;;;;;15.93;6.45;;;;;;;19.35;92.42;101195.09;5130991;28;20054;-58
2022/08/01 01:59:25;;;;;;;18.95;6.63;;;;;;;19.41;92.28;101190.75;5130921;28;20081;-58
2022/08/01 02:01:55;;;;;;;14.88;6.53;;;;;;;19.31;93.05;101191.16;5130943;28;20039;-58
2022/08/01 02:04:24;;;;;;;15.55;6.22;;;;;;;19.32;93.19;101190.13;5130175;28;20047;-58
2022/08/01 02:06:52;;;;;;;11.82;6.32;;;;;;;19.35;92.73;101184.34;5130748;28;20282;-57
2022/08/01 02:09:21;;;;;;;14.65;6.43;;;;;;;19.38;93.11;101182.06;5130896;28;20051;-58
2022/08/01 02:11:49;;;;;;;15.77;6.85;;;;;;;19.33;92.62;101181.84;5130809;28;20524;-58
2022/08/01 02:14:18;;;;;;;15.10;6.38;;;;;;;19.39;93.29;101180.19;5112149;28;20070;-58
2022/08/01 02:16:49;;;;;;;16.30;7.00;;;;;;;19.36;92.74;101175.25;5130341;28;20490;-58
2022/08/01 02:19:19;;;;;;;15.35;7.07;;;;;;;19.38;92.51;101170.50;5130546;28;20038;-59
2022/08/01 02:21:52;;;;;;;16.88;7.20;;;;;;;19.43;91.86;101175.25;5130595;28;20047;-58
2022/08/01 02:24:37;;;;;;;19.88;7.18;;;;;;;19.44;92.04;101176.91;5130030;28;20130;-58
2022/08/01 02:27:10;;;;;;;16.20;6.65;;;;;;;19.34;92.69;101178.13;5130550;28;20044;-59
2022/08/01 02:29:43;;;;;;;17.55;7.43;;;;;;;19.40;92.64;101172.97;5130196;28;20049;-58
2022/08/01 02:32:14;;;;;;;17.83;7.32;;;;;;;19.40;92.46;101164.91;5129590;28;20055;-58
2022/08/01 02:34:45;;;;;;;15.85;7.40;;;;;;;19.29;93.50;101169.00;5130398;28;20039;-61
2022/08/01 02:37:13;;;;;;;17.67;7.27;;;;;;;19.36;92.25;101165.31;5099389;28;20044;-58
2022/08/01 02:39:40;;;;;;;21.80;7.75;;;;;;;19.28;93.03;101159.28;5116707;28;20548;-58
2022/08/01 02:42:11;;;;;;;20.08;8.00;;;;;;;19.38;92.74;101165.09;5115967;28;20096;-57
2022/08/01 02:44:42;;;;;;;22.13;8.27;;;;;;;19.36;92.34;101172.56;5098174;28;20089;-58
2022/08/01 02:47:10;;;;;;;17.13;7.70;;;;;;;19.31;93.00;101172.31;5116303;28;20062;-58
2022/08/01 02:49:42;;;;;;;18.85;8.10;;;;;;;19.30;93.31;101167.97;5116780;27;20052;-59
2022/08/01 02:52:13;;;;;;;21.40;7.93;;;;;;;19.35;92.76;101170.88;5099616;28;20551;-58
2022/08/01 02:54:43;;;;;;;20.63;8.10;;;;;;;19.39;92.95;101174.81;5115944;28;20390;-58
2022/08/01 02:57:10;;;;;;;23.50;9.13;;;;;;;19.41;92.16;101170.09;5115800;28;20055;-58
2022/08/01 02:59:40;;;;;;;18.58;8.07;;;;;;;19.35;92.48;101165.50;5136632;27;20046;-59
2022/08/01 03:02:08;;;;;;;20.02;8.55;;;;;;;19.29;93.66;101166.31;5136551;27;20401;-59
2022/08/01 03:04:39;;;;;;;17.23;7.80;;;;;;;19.49;91.54;101164.50;5136103;27;20043;-60
2022/08/01 03:07:08;;;;;;;16.23;8.07;;;;;;;19.37;92.24;101168.81;5117953;27;20039;-59
2022/08/01 03:09:40;;;;;;;18.70;7.95;;;;;;;19.43;92.24;101168.03;5136358;27;20405;-59
2022/08/01 03:12:13;;;;;;;17.77;8.55;;;;;;;19.38;92.80;101173.19;5136442;27;20051;-59
2022/08/01 03:14:42;;;;;;;17.17;8.05;;;;;;;19.37;93.15;101166.13;5136235;27;20103;-59
2022/08/01 03:17:11;;;;;;;18.63;8.43;;;;;;;19.30;94.72;101174.19;5136311;27;20070;-60
2022/08/01 03:19:40;;;;;;;22.05;9.88;;;;;;;19.41;92.74;101177.31;5136116;27;20039;-59
2022/08/01 03:22:11;;;;;;;23.80;10.23;;;;;;;19.53;92.14;101181.91;5117910;27;20074;-59
2022/08/01 03:24:40;;;;;;;27.80;11.73;;;;;;;19.48;92.73;101178.16;5135879;27;20053;-59
2022/08/01 03:27:08;;;;;;;30.17;11.60;;;;;;;19.47;92.89;101180.03;5128781;27;20755;-59
2022/08/01 03:29:36;;;;;;;29.65;12.10;;;;;;;19.40;92.14;101184.56;5115715;28;20043;-59
2022/08/01 03:32:03;;;;;;;24.48;12.43;;;;;;;19.43;92.97;101191.38;5115203;28;20043;-59
2022/08/01 03:34:31;;;;;;;27.75;12.52;;;;;;;19.46;92.42;101189.13;5114905;28;20044;-59
2022/08/01 03:37:37;;;;;;;28.83;12.27;;;;;;;19.46;93.14;101189.13;5115369;28;20093;-59
2022/08/01 03:40:35;;;;;;;32.40;14.40;;;;;;;19.53;92.38;101189.16;5115384;28;20052;-59
2022/08/01 03:43:05;;;;;;;27.95;14.43;;;;;;;19.51;91.92;101191.22;5114985;28;20523;-59
2022/08/01 03:45:36;;;;;;;36.03;14.52;;;;;;;19.44;92.76;101187.69;5115024;28;20047;-59
2022/08/01 03:48:09;;;;;;;31.10;15.40;;;;;;;19.41;92.62;101194.31;5114219;28;20054;-59
2022/08/01 03:50:39;;;;;;;32.85;15.07;;;;;;;19.45;92.53;101181.28;5097305;28;20481;-59
2022/08/01 03:53:09;;;;;;;32.10;16.52;;;;;;;19.51;92.45;101185.84;5114938;28;20035;-59
2022/08/01 03:55:39;;;;;;;38.15;15.75;;;;;;;19.40;93.26;101189.94;5096659;28;20046;-59
2022/08/01 03:58:07;;;;;;;36.70;17.50;;;;;;;19.40;93.23;101181.88;5104495;27;20400;-59
2022/08/01 04:00:38;;;;;;;34.03;17.52;;;;;;;19.37;93.88;101185.81;5135431;27;20073;-59
2022/08/01 04:03:07;;;;;;;36.53;19.05;;;;;;;19.43;92.93;101186.84;5117700;27;20444;-59
2022/08/01 04:05:35;;;;;;;36.58;17.95;;;;;;;19.37;92.99;101191.19;5134768;27;20148;-59
2022/08/01 04:08:02;;;;;;;34.55;18.42;;;;;;;19.37;93.21;101175.03;5135325;27;20054;-59
2022/08/01 04:10:29;;;;;;;34.60;18.67;;;;;;;19.33;93.03;101181.84;5135027;27;20488;-59
2022/08/01 04:12:56;;;;;;;31.33;17.65;;;;;;;19.37;93.55;101182.25;5117266;27;20484;-59
2022/08/01 04:15:23;;;;;;;33.60;17.80;;;;;;;19.41;93.18;101185.38;5134940;27;20039;-59
2022/08/01 04:17:51;;;;;;;38.40;17.35;;;;;;;19.40;93.85;101186.44;5119086;27;20048;-59
2022/08/01 04:20:18;;;;;;;41.03;20.73;;;;;;;19.51;92.33;101191.22;5114423;28;20044;-59
2022/08/01 04:22:45;;;;;;;44.83;22.38;;;;;;;19.47;93.12;101184.59;5114149;28;20039;-59
2022/08/01 04:25:19;;;;;;;44.78;22.60;;;;;;;19.41;92.67;101185.38;5113901;28;20070;-59
2022/08/01 04:27:48;;;;;;;43.67;22.40;;;;;;;19.38;93.44;101192.00;5114410;28;20546;-59
2022/08/01 04:30:17;;;;;;;54.25;24.15;;;;;;;19.45;93.05;101192.03;5113628;28;20093;-59
2022/08/01 04:32:46;;;;;;;44.38;22.67;;;;;;;19.30;94.31;101203.78;5114179;28;20576;-59
2022/08/01 04:35:16;;;;;;;43.45;21.85;;;;;;;19.37;94.14;101193.03;5113964;28;20044;-59
2022/08/01 04:37:45;;;;;;;37.47;20.45;;;;;;;19.42;94.05;101200.50;5114196;28;20052;-59
2022/08/01 04:40:13;;;;;;;41.40;20.10;;;;;;;19.40;94.73;101200.69;5114205;28;20075;-59
2022/08/01 04:42:40;;;;;;;40.72;20.38;;;;;;;19.54;92.81;101204.28;5113849;28;20051;-59
2022/08/01 04:45:08;;;;;;;40.92;19.27;;;;;;;19.45;92.74;101200.13;5113997;28;20035;-59
2022/08/01 04:47:37;;;;;;;39.28;19.00;;;;;;;19.37;93.67;101203.78;5113860;28;20052;-59
2022/08/01 04:50:06;;;;;;;39.95;19.08;;;;;;;19.49;92.81;101210.25;5114066;28;20550;-59
2022/08/01 04:52:35;;;;;;;33.83;18.38;;;;;;;19.44;92.95;101218.09;5116970;27;20104;-58
2022/08/01 04:55:03;;;;;;;39.50;18.85;;;;;;;19.46;93.56;101218.72;5113257;28;20104;-58
2022/08/01 04:57:30;;;;;;;37.47;18.00;;;;;;;19.45;93.48;101219.75;5113027;28;20126;-59
2022/08/01 04:59:57;;;;;;;39.55;19.15;;;;;;;19.47;92.75;101225.78;5095341;28;20415;-59
2022/08/01 05:02:23;;;;;;;39.63;18.50;;;;;;;19.49;93.37;101231.78;5113886;28;20043;-58
2022/08/01 05:04:50;;;;;;;35.65;18.02;;;;;;;19.49;93.83;101229.09;5112993;28;20113;-58
2022/08/01 05:07:17;;;;;;;37.40;18.92;;;;;;;19.51;93.20;101227.03;5095813;28;20043;-58
2022/08/01 05:09:46;;;;;;;42.45;18.65;;;;;;;19.49;91.58;101231.78;5113671;28;20047;-58
2022/08/01 05:12:13;;;;;;;34.47;18.88;;;;;;;19.63;90.67;101227.28;5113278;28;20044;-58
2022/08/01 05:14:40;;;;;;;34.55;19.35;;;;;;;19.49;91.95;101228.25;5113752;28;20047;-58
2022/08/01 05:17:08;;;;;;;35.67;18.42;;;;;;;19.46;91.63;101236.72;5113664;28;20126;-58
2022/08/01 05:19:37;;;;;;;40.33;19.30;;;;;;;19.44;91.50;101236.09;5113383;28;20403;-58
2022/08/01 05:22:06;;;;;;;38.13;18.95;;;;;;;19.43;92.53;101234.44;5113714;28;20048;-58
2022/08/01 05:24:36;;;;;;;32.15;17.20;;;;;;;19.46;91.78;101232.16;5091280;28;20060;-59
2022/08/01 05:27:04;;;;;;;37.95;18.73;;;;;;;19.47;92.23;101239.22;5093219;28;20127;-58
2022/08/01 05:29:31;;;;;;;36.67;19.40;;;;;;;19.44;92.77;101238.78;5093151;28;20072;-59
2022/08/01 05:31:58;;;;;;;36.75;17.58;;;;;;;19.46;91.99;101237.56;5092565;28;20051;-59
2022/08/01 05:34:26;;;;;;;37.35;19.77;;;;;;;19.46;92.77;101240.25;5093028;28;20043;-59
2022/08/01 05:36:53;;;;;;;38.03;18.35;;;;;;;19.52;92.60;101244.84;5093013;28;20048;-58
2022/08/01 05:39:22;;;;;;;33.22;18.13;;;;;;;19.55;91.31;101241.75;5093101;28;20048;-58
2022/08/01 05:41:49;;;;;;;35.97;17.70;;;;;;;19.62;91.54;101240.94;5092901;28;20052;-58
2022/08/01 05:44:16;;;;;;;38.30;19.05;;;;;;;19.78;89.86;101247.84;5093198;28;20043;-58
2022/08/01 05:46:42;;;;;;;41.42;18.30;;;;;;;19.68;90.26;101251.72;5092422;28;20052;-58
2022/08/01 05:49:09;;;;;;;46.80;17.85;;;;;;;19.71;90.91;101248.63;5093101;28;20063;-59
2022/08/01 05:51:36;;;;;;;38.67;18.63;;;;;;;19.74;90.29;101252.81;5092981;28;20044;-58
2022/08/01 05:54:03;;;;;;;41.55;18.83;;;;;;;19.77;90.78;101252.38;5093047;28;20048;-58
2022/08/01 05:56:30;;;;;;;38.28;18.70;;;;;;;19.78;90.74;101254.06;5092335;28;20087;-58
2022/08/01 05:58:58;;;;;;;35.92;18.70;;;;;;;19.67;91.00;101251.94;5092882;28;20126;-58
2022/08/01 06:01:24;;;;;;;41.20;18.38;;;;;;;19.61;91.04;101258.94;5092677;28;20109;-58
2022/08/01 06:03:53;;;;;;;39.25;16.98;;;;;;;19.60;89.84;101257.28;5092377;28;20051;-59
2022/08/01 06:06:21;;;;;;;42.83;18.00;;;;;;;19.78;90.01;101250.53;5092588;28;20052;-58
2022/08/01 06:08:48;;;;;;;32.75;17.08;;;;;;;19.65;89.88;101254.81;5092847;28;20105;-59
2022/08/01 06:11:15;;;;;;;32.40;16.15;;;;;;;19.75;90.04;101252.63;5094076;28;20486;-58
2022/08/01 06:13:41;;;;;;;35.72;17.15;;;;;;;19.66;90.72;101258.31;5096585;28;20089;-58
2022/08/01 06:16:08;;;;;;;34.15;17.25;;;;;;;19.77;90.28;101254.25;5096390;28;20397;-59
2022/08/01 06:18:35;;;;;;;33.65;17.02;;;;;;;19.78;90.03;101261.31;5096311;28;20101;-59
2022/08/01 06:21:03;;;;;;;29.77;16.92;;;;;;;19.86;90.09;101253.88;5096452;28;20048;-58
2022/08/01 06:23:29;;;;;;;37.83;17.35;;;;;;;19.73;89.96;101251.97;5095220;28;20113;-58
2022/08/01 06:25:57;;;;;;;33.08;16.92;;;;;;;19.75;89.73;101249.94;5115993;28;20055;-58
2022/08/01 06:28:24;;;;;;;37.15;17.40;;;;;;;19.70;89.57;101244.28;5116527;28;20051;-58
2022/08/01 06:30:51;;;;;;;34.63;16.48;;;;;;;19.75;89.70;101247.22;5116246;28;20431;-59
2022/08/01 06:33:17;;;;;;;35.38;18.05;;;;;;;19.74;89.08;101250.13;5128164;27;20047;-59
2022/08/01 06:35:44;;;;;;;30.17;16.85;;;;;;;19.79;88.52;101238.72;5129051;27;20423;-60
2022/08/01 06:38:11;;;;;;;31.88;17.20;;;;;;;19.89;88.51;101245.38;5121714;27;20096;-59
2022/08/01 06:40:38;;;;;;;36.80;17.08;;;;;;;19.87;88.07;101247.47;5123425;27;20643;-59
2022/08/01 06:43:05;;;;;;;35.00;16.80;;;;;;;19.95;88.63;101246.44;5118295;27;20050;-59
2022/08/01 06:45:31;;;;;;;34.65;17.45;;;;;;;20.07;88.36;101247.50;5118165;27;20042;-59
2022/08/01 06:47:58;;;;;;;32.67;17.00;;;;;;;20.11;87.35;101253.31;5127902;27;20039;-60
2022/08/01 06:50:25;;;;;;;33.70;16.58;;;;;;;20.17;86.51;101244.41;5119310;27;20047;-59
2022/08/01 06:52:51;;;;;;;31.38;16.77;;;;;;;20.25;86.18;101251.47;5131483;27;20035;-59
2022/08/01 06:55:19;;;;;;;30.00;15.77;;;;;;;20.23;86.26;101246.28;5128670;27;20028;-59
2022/08/01 06:57:47;;;;;;;37.28;16.58;;;;;;;20.26;85.40;101253.94;5120633;27;20050;-59
2022/08/01 07:00:16;;;;;;;29.80;15.55;;;;;;;20.27;85.60;101249.41;5128818;27;20043;-60
2022/08/01 07:02:43;;;;;;;31.88;16.17;;;;;;;20.29;84.84;101250.84;5117604;27;20039;-59
2022/08/01 07:05:09;;;;;;;27.05;13.88;;;;;;;20.25;83.61;101243.41;5110918;28;20077;-59
2022/08/01 07:07:36;;;;;;;27.42;14.93;;;;;;;20.26;83.51;101248.53;5124174;27;20036;-59
2022/08/01 07:10:04;;;;;;;24.70;14.02;;;;;;;20.38;82.83;101256.84;5123870;27;20450;-59
2022/08/01 07:12:33;;;;;;;26.23;14.50;;;;;;;20.46;82.95;101255.81;5130654;27;20047;-59
2022/08/01 07:14:59;;;;;;;25.95;14.95;;;;;;;20.58;81.65;101250.66;5131424;27;20035;-59
2022/08/01 07:17:26;;;;;;;23.95;14.30;;;;;;;20.60;81.42;101249.41;5116459;27;20043;-59
2022/08/01 07:19:54;;;;;;;29.40;14.50;;;;;;;20.74;82.10;101246.72;5117821;27;20054;-59
2022/08/01 07:22:22;;;;;;;28.13;14.00;;;;;;;20.84;81.38;101245.25;5115469;27;20435;-60
2022/08/01 07:24:49;;;;;;;27.70;13.45;;;;;;;20.80;80.69;101252.09;5121418;27;20055;-59
2022/08/01 07:27:16;;;;;;;27.08;13.65;;;;;;;20.79;81.65;101250.47;5129689;27;20039;-60
2022/08/01 07:29:42;;;;;;;24.20;12.90;;;;;;;21.02;80.37;101257.25;5122654;27;20044;-59
2022/08/01 07:32:09;;;;;;;24.95;12.85;;;;;;;20.99;79.50;101257.66;5123696;27;20035;-59
2022/08/01 07:34:36;;;;;;;21.40;11.07;;;;;;;21.04;77.50;101260.56;5121353;27;20046;-59
2022/08/01 07:37:03;;;;;;;20.75;10.23;;;;;;;20.83;79.00;101262.47;5123066;27;20039;-59
2022/08/01 07:39:30;;;;;;;19.58;10.95;;;;;;;20.77;79.59;101263.28;5125127;27;20489;-59
2022/08/01 07:41:57;;;;;;;18.52;9.77;;;;;;;20.81;78.78;101259.16;5126046;27;20575;-60
2022/08/01 07:44:24;;;;;;;20.50;10.40;;;;;;;20.62;77.69;101266.22;5117850;27;20055;-59
2022/08/01 07:46:51;;;;;;;22.70;10.98;;;;;;;20.82;78.52;101270.78;5131236;27;20442;-59
2022/08/01 07:49:17;;;;;;;20.85;11.65;;;;;;;20.87;75.90;101271.81;5127194;27;21289;-59
2022/08/01 07:51:44;;;;;;;28.75;12.23;;;;;;;20.75;78.34;101270.75;5123046;27;20040;-59
2022/08/01 07:54:11;;;;;;;26.15;12.27;;;;;;;20.90;78.93;101271.38;5106193;27;20034;-59
2022/08/01 07:56:37;;;;;;;25.83;11.20;;;;;;;21.07;76.39;101271.75;5122668;27;20031;-59
2022/08/01 07:59:04;;;;;;;23.73;10.90;;;;;;;20.97;76.99;101276.75;5120769;27;20127;-59
2022/08/01 08:01:31;;;;;;;20.75;8.45;;;;;;;21.12;76.73;101268.44;5119354;27;20039;-59
2022/08/01 08:03:58;;;;;;;27.48;10.45;;;;;;;21.10;75.37;101273.19;5115220;27;20130;-60
2022/08/01 08:06:24;;;;;;;21.00;9.75;;;;;;;21.14;75.41;101274.47;5123468;27;20063;-60
2022/08/01 08:08:53;;;;;;;22.25;8.93;;;;;;;21.16;76.06;101280.47;5121397;27;20051;-59
2022/08/01 08:11:20;;;;;;;16.00;8.50;;;;;;;21.17;74.44;101265.91;5127830;27;20084;-59
2022/08/01 08:13:46;;;;;;;19.80;8.40;;;;;;;21.24;73.86;101272.13;5126928;27;20046;-60
2022/08/01 08:16:13;;;;;;;18.02;7.57;;;;;;;21.27;74.01;101266.31;5124292;27;20046;-59
2022/08/01 08:18:40;;;;;;;18.42;7.65;;;;;;;21.44;73.55;101269.38;5123553;27;20551;-59
2022/08/01 08:21:07;;;;;;;16.90;7.72;;;;;;;21.49;73.47;101276.03;5120568;27;20047;-59
2022/08/01 08:26:23;;;;;;;12.93;5.63;;;;;;;21.88;70.04;101268.78;5124003;27;20044;-59
2022/08/01 08:28:49;;;;;;;16.05;6.63;;;;;;;21.66;70.61;101277.19;5126489;27;20039;-59
2022/08/01 08:31:16;;;;;;;15.95;6.55;;;;;;;21.77;71.34;101275.69;5126545;27;20043;-59
2022/08/01 08:33:43;;;;;;;15.23;6.35;;;;;;;21.80;70.80;101284.19;5126443;27;20065;-59
2022/08/01 08:36:11;;;;;;;11.95;6.13;;;;;;;21.87;72.06;101286.06;5123968;27;20039;-59
2022/08/01 08:38:37;;;;;;;11.93;6.00;;;;;;;21.95;71.48;101275.81;5124569;27;20108;-60
2022/08/01 08:41:04;;;;;;;12.40;6.32;;;;;;;21.98;70.61;101282.66;5070773;28;20495;-59
2022/08/01 08:43:31;;;;;;;14.98;6.28;;;;;;;22.13;69.61;101285.06;5119723;27;20396;-60
2022/08/01 08:45:59;;;;;;;11.98;5.13;;;;;;;22.16;70.25;101290.03;5116446;27;20047;-60
2022/08/01 08:48:27;;;;;;;14.55;5.60;;;;;;;22.30;67.56;101288.09;5123432;27;20092;-60
2022/08/01 08:50:55;;;;;;;10.00;4.90;;;;;;;22.37;68.34;101286.97;5116398;27;20054;-59
2022/08/01 08:53:22;;;;;;;15.55;5.60;;;;;;;22.49;68.03;101294.41;5118443;27;20531;-60
2022/08/01 08:55:50;;;;;;;13.90;5.03;;;;;;;22.53;66.97;101292.91;5099164;28;20036;-59
2022/08/01 08:58:18;;;;;;;12.45;5.50;;;;;;;22.58;65.90;101290.38;5102475;27;20091;-60
2022/08/01 09:00:45;;;;;;;12.45;5.72;;;;;;;22.60;65.31;101299.09;5118840;27;20108;-60
2022/08/01 09:03:12;;;;;;;13.68;5.78;;;;;;;22.50;66.12;101301.44;5117800;27;20051;-60
2022/08/01 09:05:39;;;;;;;15.00;6.70;;;;;;;22.54;66.36;101295.41;5116007;27;20054;-59
2022/08/01 09:08:07;;;;;;;17.10;6.50;;;;;;;22.53;67.44;101301.84;5115452;27;20528;-60
2022/08/01 09:10:34;;;;;;;10.75;5.93;;;;;;;22.68;65.82;101304.22;5101502;27;20039;-59
2022/08/01 09:13:05;;;;;;;13.07;5.55;;;;;;;22.60;64.74;101307.22;5117147;27;20043;-60
2022/08/01 09:15:42;;;;;;;9.98;4.85;;;;;;;22.53;63.77;101306.44;5121763;27;20043;-59
2022/08/01 09:18:27;;;;;;;9.57;4.78;;;;;;;22.38;65.22;101302.16;5085204;28;20051;-59
2022/08/01 09:21:19;;;;;;;11.80;5.15;;;;;;;22.37;65.27;101303.19;5119181;27;20047;-59
2022/08/01 09:23:49;;;;;;;11.73;5.60;;;;;;;22.47;65.99;101308.13;5122484;27;20121;-59
2022/08/01 09:26:20;;;;;;;12.88;5.50;;;;;;;22.58;66.73;101299.31;5125636;28;20063;-60
2022/08/01 09:28:48;;;;;;;12.57;5.88;;;;;;;22.79;64.29;101314.34;5119113;28;20052;-60
2022/08/01 09:31:16;;;;;;;13.30;5.68;;;;;;;22.84;64.63;101312.84;5119183;28;20066;-60
2022/08/01 09:33:52;;;;;;;17.98;6.78;;;;;;;22.74;65.95;101305.19;5124614;28;20047;-60
2022/08/01 09:36:22;;;;;;;17.65;7.07;;;;;;;22.96;64.91;101305.66;5117130;28;20082;-59
2022/08/01 09:38:50;;;;;;;14.10;5.35;;;;;;;23.02;64.96;101303.94;5129689;28;20104;-59
2022/08/01 09:41:27;;;;;;;12.43;5.03;;;;;;;23.21;64.28;101305.63;5119597;28;20043;-59
2022/08/01 09:43:55;;;;;;;15.32;7.28;;;;;;;23.26;62.68;101319.31;5119802;28;20071;-59
2022/08/01 09:46:22;;;;;;;13.93;6.75;;;;;;;23.47;62.30;101314.53;5114339;28;20075;-59
2022/08/01 09:49:02;;;;;;;22.77;11.10;;;;;;;23.72;62.41;101311.69;5123054;27;20059;-59
2022/08/01 09:51:34;;;;;;;21.40;12.13;;;;;;;23.69;61.93;101307.56;5106862;27;20392;-59
2022/08/01 09:54:04;;;;;;;15.25;5.78;;;;;;;23.58;62.17;101309.16;5135073;27;20065;-59
2022/08/01 09:56:42;;;;;;;19.65;10.95;;;;;;;23.68;61.34;101308.63;5119605;27;20097;-59
2022/08/01 09:59:09;;;;;;;12.20;5.88;;;;;;;23.79;60.23;101307.03;5121647;27;20035;-59
2022/08/01 10:01:45;;;;;;;14.18;5.65;;;;;;;23.91;59.52;101307.13;5131170;27;20074;-59
2022/08/01 10:04:16;;;;;;;14.85;7.03;;;;;;;24.21;59.61;101311.69;5136458;27;20043;-59
2022/08/01 10:06:46;;;;;;;14.50;5.40;;;;;;;24.24;57.99;101314.75;5103737;27;20124;-59
2022/08/01 10:09:14;;;;;;;11.87;5.43;;;;;;;24.26;57.60;101303.69;5130663;27;20039;-59
2022/08/01 10:11:42;;;;;;;11.38;5.55;;;;;;;24.51;57.43;101304.34;5116531;27;20040;-59
2022/08/01 10:14:09;;;;;;;12.75;5.35;;;;;;;24.43;59.52;101299.28;5130803;27;20039;-59
2022/08/01 10:16:37;;;;;;;11.43;4.68;;;;;;;24.58;59.60;101304.28;5118568;27;20077;-60
2022/08/01 10:19:07;;;;;;;12.45;5.00;;;;;;;24.93;58.03;101300.75;5118198;27;20047;-59
2022/08/01 10:21:36;;;;;;;9.50;4.93;;;;;;;25.19;56.68;101304.03;5125509;27;20047;-60
2022/08/01 10:24:07;;;;;;;10.68;5.25;;;;;;;25.22;55.33;101306.28;5123206;27;20054;-59
2022/08/01 10:26:35;;;;;;;11.68;4.43;;;;;;;25.33;54.70;101294.59;5133999;27;20088;-59
2022/08/01 10:29:03;;;;;;;8.60;3.85;;;;;;;25.59;54.24;101295.13;5131444;27;20104;-59
2022/08/01 10:31:32;;;;;;;13.05;4.10;;;;;;;25.83;52.05;101304.84;5115415;28;20073;-59
2022/08/01 10:34:00;;;;;;;7.20;3.25;;;;;;;25.50;50.64;101300.09;5123339;27;20092;-59
2022/08/01 10:36:27;;;;;;;8.23;3.22;;;;;;;25.41;52.43;101298.81;5136769;27;20054;-59
2022/08/01 10:38:55;;;;;;;6.57;3.20;;;;;;;25.14;53.22;101302.03;5119274;27;20051;-60
2022/08/01 10:41:23;;;;;;;7.90;3.00;;;;;;;24.98;52.26;101310.91;5127409;27;20043;-59
2022/08/01 10:43:51;;;;;;;6.22;2.92;;;;;;;25.06;49.71;101305.09;5127221;27;20481;-59
2022/08/01 10:46:19;;;;;;;8.93;3.40;;;;;;;24.70;50.96;101307.84;5120170;27;20613;-59
2022/08/01 10:48:58;;;;;;;7.20;3.17;;;;;;;24.72;52.89;101304.84;5132680;27;20035;-59
2022/08/01 10:51:26;;;;;;;7.78;3.03;;;;;;;24.79;53.16;101307.47;5123697;27;20480;-59
2022/08/01 10:53:54;;;;;;;8.45;3.42;;;;;;;24.93;53.99;101311.59;5124225;27;20047;-59
2022/08/01 10:56:22;;;;;;;8.23;3.00;;;;;;;25.05;51.54;101303.44;5127649;27;20062;-59
2022/08/01 10:59:00;;;;;;;7.55;3.13;;;;;;;25.02;52.35;101309.38;5127278;27;20051;-59
2022/08/01 11:01:31;;;;;;;9.48;3.35;;;;;;;24.85;53.72;101303.81;5125076;27;20612;-59
2022/08/01 11:06:40;;;;;;;6.85;2.78;;;;;;;24.66;53.74;101306.63;5126918;27;20382;-58
2022/08/01 11:09:23;;;;;;;7.35;2.50;;;;;;;24.81;51.46;101295.34;5115407;28;20071;-59
2022/08/01 11:12:15;;;;;;;8.55;2.70;;;;;;;24.67;52.64;101300.16;5119019;27;20382;-60
2022/08/01 11:17:47;;;;;;;10.95;2.72;;;;;;;25.38;51.85;101302.84;5107222;27;20377;-59
2022/08/01 11:20:24;;;;;;;6.68;2.83;;;;;;;25.47;50.69;101295.16;5095360;28;20417;-59
2022/08/01 11:28:23;;;;;;;7.38;2.92;;;;;;;24.82;52.72;101294.25;5125687;27;20043;-58
2022/08/01 11:36:20;;;;;;;9.35;2.90;;;;;;;25.31;50.59;101285.88;5125527;27;20342;-50
2022/08/01 11:41:37;;;;;;;5.88;2.05;;;;;;;25.22;48.13;101290.81;5120174;27;20379;-51
2022/08/01 11:44:09;;;;;;;4.82;2.10;;;;;;;25.54;47.74;101286.88;5117050;27;20428;-50
2022/08/01 11:47:09;;;;;;;10.63;2.40;;;;;;;25.79;46.93;101279.22;5127160;28;20397;-50
2022/08/01 11:52:17;;;;;;;5.03;2.20;;;;;;;26.27;46.08;101282.56;5082500;28;20371;-59